Strona główna
METAR-TAF:

METAR-TAF

Lotnisko :

Port lotniczy Tokachi-Obihiro

Obihiro, Japonia

Szerokość geograficzna: 42-44N, Długość geograficzna: 143-13E, wysokość: 149 m

Aktualna obserwacja pogody

Raport powstał 10 godziny i 53 minut temu, godzina 11:00 UTC
Wiatr 3 kt od południowo-południowy wschód, zmienny między wschodnio-południowy wschód i południowy zachód
Temperatura -11°C
Wilgotność 56%
Ciśnienie 1016 hPa
Widzialność 10 km lub więcej
Mało chmury na wysokości 3000 ft

METAR: RJCB 091100Z 15003KT 110V220 9999 FEW030 M11/M18 Q1016

czas: 06:53 (21:53 UTC)

Prognoza

Raport powstał 4 godziny i 46 minut temu, godzina 17:07 UTC
Prognoza ważna od 09 godzina 18 UTC do 11 godzina 00 UTC
Wiatr 7 kt od zachodnio-północny zachód
Widzialność 10 km lub więcej
Mało chmury na wysokości 4000 ft
Przejściowo
od 10 godzina 02 UTC do 10 godzina 06 UTC
Wiatr 18 kt od północno-północny zachód w porywach dochodzący do 28 kt

TAF: RJCB 091707Z 0918/1100 29007KT 9999 FEW040 TEMPO 1002/1006 33018G28KT

Obserwacja i prognoza pogody dla ponad 4000 lotnisk (raport METAR i TAF).

Dostępne stacje oznaczono żółtymi i czerwonymi punktami na mapie.

Najedź kursorem aby zobaczyć nazwę stacji.

Kliknij aby zobaczyć obserwacje i prognozy pogody.

Aby zmienić mapę: kliknij na zielony przycisk z czarnym krzyżykiem, aby powiększyć; na zielony przycisk z myślnikiem, aby pomniejszyć; na zielone strzałki, aby przejść do map sąsiednich.


METAR-TAF: